METAR Data
IDs: Format: Raw Decoded Include TAF

Data at: 1709 UTC 16 Oct 2021

K3T5 161655Z AUTO 04009G18KT 10SM CLR 21/05 A3033 RMK AO2 T02070054
K3T5 161635Z AUTO 04009G16KT 010V070 10SM CLR 21/06 A3033 RMK AO2 T02070063
K3T5 161615Z AUTO 04011G19KT 10SM CLR 20/05 A3033 RMK AO2 T02040053
K3T5 161555Z AUTO 05012G21KT 10SM CLR 20/06 A3033 RMK AO2 T02010059
K3T5 161535Z AUTO 04009KT 10SM CLR 19/08 A3033 RMK AO2 T01930079
K3T5 161515Z AUTO 04007KT 010V080 10SM CLR 19/09 A3033 RMK AO2 T01880086
K3T5 161455Z AUTO 03009G15KT 10SM CLR 18/09 A3032 RMK AO2 T01820085
K3T5 161435Z AUTO 03005KT 10SM CLR 17/09 A3032 RMK AO2 T01720091
K3T5 161415Z AUTO 03005KT 10SM CLR 17/10 A3032 RMK AO2 T01650095
K3T5 161355Z AUTO 03006KT 10SM CLR 16/10 A3031 RMK AO2 T01570095
K3T5 161335Z AUTO 02006KT 10SM CLR 15/10 A3030 RMK AO2 T01520097
K3T5 161315Z AUTO 36004KT 10SM CLR 14/10 A3030 RMK AO2 T01440099
K3T5 161255Z AUTO 36004KT 10SM CLR 14/10 A3029 RMK AO2 T01390096
K3T5 161235Z AUTO 35004KT 10SM CLR 14/10 A3028 RMK AO2 T01400097
K3T5 161215Z AUTO 36004KT 10SM CLR 14/09 A3028 RMK AO2 T01430094
K3T5 161155Z AUTO 01003KT 10SM CLR 15/10 A3027 RMK AO2 70008 T01470095 10199 20147
K3T5 161135Z AUTO 01005KT 10SM CLR 15/09 A3026 RMK AO2 T01510094
K3T5 161115Z AUTO 01005KT 10SM CLR 15/09 A3025 RMK AO2 T01540090
K3T5 161055Z AUTO 01006KT 10SM CLR 16/09 A3025 RMK AO2 T01560089
K3T5 161035Z AUTO 02005KT 10SM CLR 16/09 A3024 RMK AO2 T01600090
K3T5 161015Z AUTO 02007KT 10SM CLR 16/09 A3023 RMK AO2 T01620091
K3T5 160955Z AUTO 01007KT 10SM CLR 16/09 A3022 RMK AO2 T01630092
K3T5 160935Z AUTO 01009G14KT 10SM CLR 17/09 A3022 RMK AO2 T01690092
K3T5 160915Z AUTO 01007KT 10SM CLR 17/09 A3021 RMK AO2 T01700094
K3T5 160855Z AUTO 01006G14KT 10SM CLR 18/09 A3021 RMK AO2 T01750094
K3T5 160835Z AUTO 36009G14KT 10SM CLR 18/09 A3020 RMK AO2 T01770094
K3T5 160815Z AUTO 01008G14KT 10SM CLR 18/10 A3020 RMK AO2 T01800095
K3T5 160755Z AUTO 01009G15KT 10SM CLR 18/10 A3019 RMK AO2 T01830097
K3T5 160735Z AUTO 01007KT 10SM CLR 19/10 A3019 RMK AO2 T01860100
K3T5 160715Z AUTO 01007KT 10SM CLR 19/11 A3019 RMK AO2 T01860105
K3T5 160655Z AUTO 01010G14KT 350V050 10SM CLR 19/11 A3018 RMK AO2 T01900105
K3T5 160635Z AUTO 01010G15KT 10SM CLR 20/11 A3017 RMK AO2 T01950107
K3T5 160615Z AUTO 01008G16KT 10SM CLR 20/11 A3017 RMK AO2 T01960111
K3T5 160555Z AUTO 02010G18KT 10SM CLR 20/11 A3017 RMK AO2 T01990113 10251 20199 403220199
K3T5 160535Z AUTO 01011G15KT 10SM CLR 20/12 A3017 RMK AO2 T02010117
K3T5 160515Z AUTO 01010G19KT 10SM CLR 21/12 A3017 RMK AO2 T02060122
K3T5 160455Z AUTO 36006G17KT 10SM CLR 21/13 A3016 RMK AO2 T02070127
K3T5 160435Z AUTO 36008KT 10SM CLR 21/13 A3016 RMK AO2 T02100133
K3T5 160415Z AUTO 36009G14KT 10SM CLR 21/14 A3015 RMK AO2 T02120138
K3T5 160355Z AUTO 36008KT 340V040 10SM CLR 22/14 A3014 RMK AO2 T02160143
K3T5 160335Z AUTO 35009G15KT 10SM CLR 22/15 A3014 RMK AO2 T02180146
K3T5 160315Z AUTO 35008G14KT 10SM CLR 22/15 A3012 RMK AO2 T02190154
K3T5 160255Z AUTO 36009G17KT 10SM CLR 22/16 A3010 RMK AO2 T02240157
K3T5 160235Z AUTO 35010G16KT 10SM CLR 22/16 A3009 RMK AO2 T02240163
K3T5 160215Z AUTO 35012G16KT 10SM CLR 23/17 A3007 RMK AO2 T02250167
K3T5 160155Z AUTO 35010G16KT 10SM CLR 23/17 A3005 RMK AO2 T02290168
K3T5 160135Z AUTO 35013G18KT 10SM CLR 23/17 A3005 RMK AO2 T02310166
K3T5 160115Z AUTO 35009G17KT 10SM CLR 23/16 A3005 RMK AO2 T02340164
K3T5 160055Z AUTO 35011G18KT 10SM CLR 24/16 A3004 RMK AO2 T02380161
K3T5 160035Z AUTO 36014G21KT 10SM CLR 24/17 A3003 RMK AO2 T02410169
K3T5 160015Z AUTO 35009KT 10SM CLR 25/18 A3001 RMK AO2 T02460177
K3T5 152355Z AUTO 36007G14KT 10SM CLR 25/18 A3001 RMK AO2 60008 T02520177 10322 20252
K3T5 152315Z AUTO 35011G20KT 10SM CLR 26/18 A2998 RMK AO2 T02560179
K3T5 152255Z AUTO 35010G15KT 10SM CLR 26/19 A2998 RMK AO2 T02610187
K3T5 152235Z AUTO 35011G18KT 10SM CLR 27/19 A2997 RMK AO2 T02700187
K3T5 152215Z AUTO 35012G17KT 10SM CLR 28/21 A2995 RMK AO2 T02780212
K3T5 152155Z AUTO 01006KT 10SM SCT038 SCT060 SCT090 28/24 A2994 RMK AO2 T02820242
K3T5 152135Z AUTO 36012G21KT 10SM SCT039 SCT060 BKN085 29/24 A2993 RMK AO2 T02850239
K3T5 152115Z AUTO 33007KT 10SM SCT100 BKN120 29/25 A2992 RMK AO2 T02920246
K3T5 152055Z AUTO 29005G08KT 5SM -RA SCT046 SCT070 OVC095 26/24 A2992 RMK AO2 P0008 60008 T02630238
K3T5 152035Z AUTO 32007KT 10SM SCT095 SCT120 31/24 A2991 RMK AO2 T03140235
K3T5 152015Z AUTO 33006KT 10SM SCT040 32/23 A2991 RMK AO2 T03160233
K3T5 151955Z AUTO 32007KT 10SM SCT035 32/24 A2991 RMK AO2 T03190236
K3T5 151935Z AUTO 32006KT 10SM SCT032 32/24 A2992 RMK AO2 T03160240
K3T5 151915Z AUTO 30007KT 10SM CLR 31/25 A2993 RMK AO2 T03140248
K3T5 151855Z AUTO 32006KT 10SM SCT022 30/25 A2993 RMK AO2 T03040250
K3T5 151835Z AUTO 34005KT 10SM SCT022 SCT028 30/25 A2994 RMK AO2 T03020251
K3T5 151815Z AUTO 32007KT 10SM BKN020 BKN028 BKN036 30/26 A2995 RMK AO2 T02990255
K3T5 151755Z AUTO 34005KT 10SM BKN020 BKN036 BKN042 29/25 A2995 RMK AO2 T02930251 10297 20215
K3T5 151735Z AUTO 33005KT 10SM BKN018 BKN024 29/25 A2996 RMK AO2 T02930254
K3T5 151715Z AUTO 31005KT 10SM BKN015 OVC022 29/26 A2996 RMK AO2 T02910257
K3T5 151655Z AUTO 25005KT 10SM BKN015 OVC020 28/26 A2997 RMK AO2 T02830256
K3T5 151635Z AUTO 00000KT 10SM OVC013 28/26 A2996 RMK AO2 T02810260
K3T5 151615Z AUTO 28004KT 10SM OVC011 28/26 A2996 RMK AO2 T02780259
K3T5 151555Z AUTO 27006KT 10SM BKN009 28/26 A2996 RMK AO2 T02750259
K3T5 151535Z AUTO 00000KT 7SM BKN005 OVC010 27/26 A2995 RMK AO2 T02650264
K3T5 151515Z AUTO 00000KT 5SM BR OVC003 26/26 A2995 RMK AO2 T02580258
K3T5 151455Z AUTO 18003KT 4SM BR BKN003 OVC008 25/25 A2994 RMK AO2 T02470247
K3T5 151435Z AUTO 00000KT 5SM -RA OVC003 24/24 A2995 RMK AO2 T02390239
K3T5 151415Z AUTO 33003KT 4SM BR OVC003 24/24 A2994 RMK AO2 T02370237
K3T5 151355Z AUTO 00000KT 7SM BKN003 BKN009 OVC012 23/23 A2993 RMK AO2 T02330233
K3T5 151335Z AUTO 00000KT 7SM OVC003 23/23 A2992 RMK AO2 T02300230
K3T5 151315Z AUTO 00000KT 5SM BR BKN003 BKN008 23/23 A2991 RMK AO2 T02260226
K3T5 151255Z AUTO 00000KT 5SM BR SCT010 SCT017 BKN042 22/22 A2989 RMK AO2 T02220222
K3T5 151235Z AUTO 00000KT 7SM OVC008 22/22 A2990 RMK AO2 T02210221
K3T5 151215Z AUTO 00000KT 10SM OVC008 22/22 A2989 RMK AO2 T02190219
K3T5 151155Z AUTO 00000KT 10SM BKN008 BKN019 22/22 A2989 RMK AO2 T02150215 10222 20211
K3T5 151135Z AUTO 00000KT 5SM BR BKN008 22/22 A2988 RMK AO2 T02160216
K3T5 151115Z AUTO 00000KT 10SM SCT008 21/21 A2987 RMK AO2 T02140214
K3T5 151055Z AUTO 00000KT 10SM SCT011 22/22 A2986 RMK AO2 T02180218
K3T5 151035Z AUTO 00000KT 10SM SCT011 21/21 A2986 RMK AO2 T02130213
K3T5 151015Z AUTO 00000KT 10SM CLR 21/21 A2986 RMK AO2 T02120212
K3T5 150955Z AUTO 00000KT 10SM CLR 21/21 A2986 RMK AO2 T02120212
K3T5 150935Z AUTO 00000KT 10SM SCT050 21/21 A2986 RMK AO2 T02130213
K3T5 150915Z AUTO 00000KT 7SM SCT050 22/22 A2986 RMK AO2 T02150215
K3T5 150855Z AUTO 00000KT 7SM CLR 21/21 A2986 RMK AO2 T02120212
K3T5 150835Z AUTO 00000KT 7SM CLR 22/22 A2986 RMK AO2 T02160216
K3T5 150815Z AUTO 00000KT 10SM CLR 22/22 A2986 RMK AO2 T02180218
K3T5 150755Z AUTO 00000KT 7SM CLR 22/22 A2986 RMK AO2 T02170217
K3T5 150735Z AUTO 00000KT 3SM BR CLR 22/22 A2986 RMK AO2 T02150215
K3T5 150715Z AUTO 00000KT 3SM BR CLR 22/22 A2986 RMK AO2 T02200220
K3T5 150655Z AUTO 00000KT 5SM BR CLR 22/22 A2986 RMK AO2 T02190219
K3T5 150635Z AUTO 00000KT 5SM BR CLR 22/22 A2986 RMK AO2 T02220222
K3T5 150615Z AUTO 00000KT 7SM CLR 22/22 A2985 RMK AO2 T02200220
K3T5 150555Z AUTO 00000KT 7SM CLR 22/22 A2986 RMK AO2 T02190219 10267 20219 402860219
K3T5 150535Z AUTO 00000KT 7SM CLR 22/22 A2986 RMK AO2 T02220222
K3T5 150515Z AUTO 00000KT 7SM CLR 22/22 A2986 RMK AO2 T02210221